Terminal Aerodrome Forecast
Issued by NWS

Home | Current Version | Previous Version | Graphics & Text | Print | Product List | Glossary On
Versions: 1 2 3 4 5 6 7 8 9 10 11 12 13 14 15 16 17 18 19 20 21
000
FTUS43 KGRB 282321
TAFRHI
TAF
KRHI 282321Z 2900/2924 02007KT P6SM SCT025 BKN050
     FM290200 03004KT P6SM SCT025
     FM290600 03004KT 6SM BR SCT010
      TEMPO 2909/2913 4SM BR BKN005
     FM291400 04005KT P6SM SCT015
     FM291600 04008KT P6SM SCT040=

USA.gov is the U.S. government's official web portal to all federal, state and local government web resources and services.